sensor_id;sensor_type;location;lat;lon;timestamp;pressure;altitude;pressure_sealevel;temperature;humidity
76519;BME280;67029;51.054;13.798;2023-02-05T00:02:14;102617.48;;;3.86;49.63
76519;BME280;67029;51.054;13.798;2023-02-05T00:04:44;102616.71;;;3.81;49.71
76519;BME280;67029;51.054;13.798;2023-02-05T00:07:14;102612.82;;;3.77;49.74
76519;BME280;67029;51.054;13.798;2023-02-05T00:09:44;102609.25;;;3.72;49.79
76519;BME280;67029;51.054;13.798;2023-02-05T00:12:14;102615.73;;;3.68;49.81
76519;BME280;67029;51.054;13.798;2023-02-05T00:14:44;102611.98;;;3.63;49.94
76519;BME280;67029;51.054;13.798;2023-02-05T00:17:14;102611.80;;;3.60;49.98
76519;BME280;67029;51.054;13.798;2023-02-05T00:19:44;102614.16;;;3.55;50.04
76519;BME280;67029;51.054;13.798;2023-02-05T00:22:14;102614.04;;;3.50;50.08
76519;BME280;67029;51.054;13.798;2023-02-05T00:24:44;102615.55;;;3.47;50.10
76519;BME280;67029;51.054;13.798;2023-02-05T00:27:14;102614.77;;;3.41;50.12
76519;BME280;67029;51.054;13.798;2023-02-05T00:29:44;102608.16;;;3.35;50.24
76519;BME280;67029;51.054;13.798;2023-02-05T00:32:14;102603.27;;;3.31;50.31
76519;BME280;67029;51.054;13.798;2023-02-05T00:34:44;102603.41;;;3.29;50.31
76519;BME280;67029;51.054;13.798;2023-02-05T00:37:14;102603.06;;;3.26;50.39
76519;BME280;67029;51.054;13.798;2023-02-05T00:39:44;102599.70;;;3.20;50.46
76519;BME280;67029;51.054;13.798;2023-02-05T00:42:14;102602.16;;;3.16;50.51
76519;BME280;67029;51.054;13.798;2023-02-05T00:44:44;102604.41;;;3.13;50.54
76519;BME280;67029;51.054;13.798;2023-02-05T00:47:14;102602.67;;;3.09;50.62
76519;BME280;67029;51.054;13.798;2023-02-05T00:49:45;102602.67;;;3.04;50.72
76519;BME280;67029;51.054;13.798;2023-02-05T00:52:14;102612.42;;;3.00;50.80
76519;BME280;67029;51.054;13.798;2023-02-05T00:54:45;102619.09;;;2.97;50.80
76519;BME280;67029;51.054;13.798;2023-02-05T00:57:15;102619.64;;;2.92;50.90
76519;BME280;67029;51.054;13.798;2023-02-05T00:59:45;102621.18;;;2.89;50.96
76519;BME280;67029;51.054;13.798;2023-02-05T01:02:15;102622.77;;;2.85;51.03
76519;BME280;67029;51.054;13.798;2023-02-05T01:04:45;102622.90;;;2.82;51.12
76519;BME280;67029;51.054;13.798;2023-02-05T01:07:15;102618.20;;;2.79;51.18
76519;BME280;67029;51.054;13.798;2023-02-05T01:09:45;102615.92;;;2.77;51.23
76519;BME280;67029;51.054;13.798;2023-02-05T01:12:15;102616.77;;;2.73;51.25
76519;BME280;67029;51.054;13.798;2023-02-05T01:14:45;102622.39;;;2.67;51.26
76519;BME280;67029;51.054;13.798;2023-02-05T01:17:15;102628.83;;;2.64;51.35
76519;BME280;67029;51.054;13.798;2023-02-05T01:19:45;102629.64;;;2.62;51.50
76519;BME280;67029;51.054;13.798;2023-02-05T01:22:15;102627.09;;;2.59;51.51
76519;BME280;67029;51.054;13.798;2023-02-05T01:24:45;102628.03;;;2.56;51.62
76519;BME280;67029;51.054;13.798;2023-02-05T01:27:15;102627.60;;;2.53;51.72
76519;BME280;67029;51.054;13.798;2023-02-05T01:29:45;102621.17;;;2.48;51.84
76519;BME280;67029;51.054;13.798;2023-02-05T01:32:16;102619.73;;;2.43;51.89
76519;BME280;67029;51.054;13.798;2023-02-05T01:34:46;102619.29;;;2.41;52.00
76519;BME280;67029;51.054;13.798;2023-02-05T01:37:16;102612.50;;;2.38;52.12
76519;BME280;67029;51.054;13.798;2023-02-05T01:39:46;102611.77;;;2.35;52.15
76519;BME280;67029;51.054;13.798;2023-02-05T01:42:19;102606.05;;;2.33;52.21
76519;BME280;67029;51.054;13.798;2023-02-05T01:47:17;102590.35;;;2.27;52.37
76519;BME280;67029;51.054;13.798;2023-02-05T01:49:47;102588.56;;;2.22;52.40
76519;BME280;67029;51.054;13.798;2023-02-05T01:52:17;102583.00;;;2.20;52.52
76519;BME280;67029;51.054;13.798;2023-02-05T01:54:47;102580.06;;;2.19;52.56
76519;BME280;67029;51.054;13.798;2023-02-05T01:57:21;102578.97;;;2.17;52.69
76519;BME280;67029;51.054;13.798;2023-02-05T01:59:48;102583.30;;;2.14;52.70
76519;BME280;67029;51.054;13.798;2023-02-05T02:02:19;102578.55;;;2.11;52.93
76519;BME280;67029;51.054;13.798;2023-02-05T02:04:52;102580.96;;;2.08;52.99
76519;BME280;67029;51.054;13.798;2023-02-05T02:07:23;102581.13;;;2.04;52.97
76519;BME280;67029;51.054;13.798;2023-02-05T02:09:51;102580.80;;;2.01;53.08
76519;BME280;67029;51.054;13.798;2023-02-05T02:12:29;102571.55;;;1.97;53.12
76519;BME280;67029;51.054;13.798;2023-02-05T02:14:57;102563.67;;;1.96;53.15
76519;BME280;67029;51.054;13.798;2023-02-05T02:17:23;102555.50;;;1.95;53.48
76519;BME280;67029;51.054;13.798;2023-02-05T02:20:01;102553.95;;;1.94;53.50
76519;BME280;67029;51.054;13.798;2023-02-05T02:27:46;102539.23;;;1.81;53.61
76519;BME280;67029;51.054;13.798;2023-02-05T02:30:00;102537.23;;;1.77;53.71
76519;BME280;67029;51.054;13.798;2023-02-05T02:32:30;102529.53;;;1.78;53.86
76519;BME280;67029;51.054;13.798;2023-02-05T02:35:05;102529.20;;;1.75;53.79
76519;BME280;67029;51.054;13.798;2023-02-05T02:37:30;102531.61;;;1.72;53.90
76519;BME280;67029;51.054;13.798;2023-02-05T02:40:06;102529.11;;;1.69;53.93
76519;BME280;67029;51.054;13.798;2023-02-05T02:42:35;102523.47;;;1.66;54.08
76519;BME280;67029;51.054;13.798;2023-02-05T02:44:59;102526.06;;;1.65;54.28
76519;BME280;67029;51.054;13.798;2023-02-05T02:47:39;102516.66;;;1.61;54.19
76519;BME280;67029;51.054;13.798;2023-02-05T02:50:03;102511.89;;;1.60;54.40
76519;BME280;67029;51.054;13.798;2023-02-05T02:52:31;102512.58;;;1.57;54.42
76519;BME280;67029;51.054;13.798;2023-02-05T02:54:59;102511.30;;;1.56;54.55
76519;BME280;67029;51.054;13.798;2023-02-05T02:57:28;102511.47;;;1.56;54.63
76519;BME280;67029;51.054;13.798;2023-02-05T02:59:59;102506.34;;;1.53;54.52
76519;BME280;67029;51.054;13.798;2023-02-05T03:02:31;102502.19;;;1.53;54.79
76519;BME280;67029;51.054;13.798;2023-02-05T03:05:03;102491.85;;;1.50;54.68
76519;BME280;67029;51.054;13.798;2023-02-05T03:07:39;102489.88;;;1.50;54.92
76519;BME280;67029;51.054;13.798;2023-02-05T03:10:08;102501.98;;;1.51;55.02
76519;BME280;67029;51.054;13.798;2023-02-05T03:12:30;102497.28;;;1.50;55.12
76519;BME280;67029;51.054;13.798;2023-02-05T03:15:00;102495.42;;;1.48;55.12
76519;BME280;67029;51.054;13.798;2023-02-05T03:17:30;102495.23;;;1.47;55.23
76519;BME280;67029;51.054;13.798;2023-02-05T03:20:07;102489.59;;;1.45;55.30
76519;BME280;67029;51.054;13.798;2023-02-05T03:22:31;102491.88;;;1.42;55.23
76519;BME280;67029;51.054;13.798;2023-02-05T03:25:02;102494.27;;;1.39;55.30
76519;BME280;67029;51.054;13.798;2023-02-05T03:27:33;102491.83;;;1.38;55.55
76519;BME280;67029;51.054;13.798;2023-02-05T03:30:04;102491.59;;;1.38;55.74
76519;BME280;67029;51.054;13.798;2023-02-05T03:35:17;102492.83;;;1.34;55.75
76519;BME280;67029;51.054;13.798;2023-02-05T03:40:31;102501.56;;;1.29;55.84
76519;BME280;67029;51.054;13.798;2023-02-05T03:43:01;102492.75;;;1.25;55.94
76519;BME280;67029;51.054;13.798;2023-02-05T03:45:30;102492.22;;;1.24;56.03
76519;BME280;67029;51.054;13.798;2023-02-05T03:48:16;102484.94;;;1.20;56.12
76519;BME280;67029;51.054;13.798;2023-02-05T03:50:21;102487.12;;;1.17;56.36
76519;BME280;67029;51.054;13.798;2023-02-05T03:52:41;102488.07;;;1.15;56.36
76519;BME280;67029;51.054;13.798;2023-02-05T03:55:11;102489.19;;;1.13;56.55
76519;BME280;67029;51.054;13.798;2023-02-05T03:57:43;102494.54;;;1.10;56.49
76519;BME280;67029;51.054;13.798;2023-02-05T04:00:09;102503.48;;;1.10;56.61
76519;BME280;67029;51.054;13.798;2023-02-05T04:02:38;102502.27;;;1.09;56.61
76519;BME280;67029;51.054;13.798;2023-02-05T04:05:08;102500.15;;;1.08;56.57
76519;BME280;67029;51.054;13.798;2023-02-05T04:07:38;102496.96;;;1.06;56.48
76519;BME280;67029;51.054;13.798;2023-02-05T04:10:09;102492.28;;;1.06;56.66
76519;BME280;67029;51.054;13.798;2023-02-05T04:12:39;102486.88;;;1.05;56.80
76519;BME280;67029;51.054;13.798;2023-02-05T04:15:09;102490.98;;;1.07;56.79
76519;BME280;67029;51.054;13.798;2023-02-05T04:17:39;102496.07;;;1.03;56.68
76519;BME280;67029;51.054;13.798;2023-02-05T04:20:09;102503.89;;;1.01;56.67
76519;BME280;67029;51.054;13.798;2023-02-05T04:22:39;102500.42;;;1.00;56.81
76519;BME280;67029;51.054;13.798;2023-02-05T04:25:10;102497.68;;;0.99;56.84
76519;BME280;67029;51.054;13.798;2023-02-05T04:27:40;102504.86;;;0.97;56.85
76519;BME280;67029;51.054;13.798;2023-02-05T04:30:11;102504.48;;;0.97;57.04
76519;BME280;67029;51.054;13.798;2023-02-05T04:32:40;102503.50;;;0.96;57.00
76519;BME280;67029;51.054;13.798;2023-02-05T04:35:10;102504.16;;;0.92;57.02
76519;BME280;67029;51.054;13.798;2023-02-05T04:37:40;102507.03;;;0.88;56.88
76519;BME280;67029;51.054;13.798;2023-02-05T04:40:10;102506.36;;;0.88;57.20
76519;BME280;67029;51.054;13.798;2023-02-05T04:42:40;102511.55;;;0.89;57.22
76519;BME280;67029;51.054;13.798;2023-02-05T04:45:11;102508.98;;;0.87;57.10
76519;BME280;67029;51.054;13.798;2023-02-05T04:47:41;102508.13;;;0.85;57.11
76519;BME280;67029;51.054;13.798;2023-02-05T04:50:11;102505.66;;;0.82;57.13
76519;BME280;67029;51.054;13.798;2023-02-05T04:52:41;102511.79;;;0.82;57.26
76519;BME280;67029;51.054;13.798;2023-02-05T04:55:11;102512.36;;;0.82;57.38
76519;BME280;67029;51.054;13.798;2023-02-05T04:57:41;102512.77;;;0.81;57.40
76519;BME280;67029;51.054;13.798;2023-02-05T05:00:12;102514.13;;;0.78;57.24
76519;BME280;67029;51.054;13.798;2023-02-05T05:02:41;102518.14;;;0.75;57.22
76519;BME280;67029;51.054;13.798;2023-02-05T05:05:11;102519.91;;;0.77;57.34
76519;BME280;67029;51.054;13.798;2023-02-05T05:07:41;102520.50;;;0.76;57.37
76519;BME280;67029;51.054;13.798;2023-02-05T05:10:11;102524.53;;;0.74;57.20
76519;BME280;67029;51.054;13.798;2023-02-05T05:12:41;102519.49;;;0.73;57.23
76519;BME280;67029;51.054;13.798;2023-02-05T05:15:11;102517.33;;;0.73;57.37
76519;BME280;67029;51.054;13.798;2023-02-05T05:17:41;102523.56;;;0.70;57.19
76519;BME280;67029;51.054;13.798;2023-02-05T05:20:11;102531.55;;;0.70;57.27
76519;BME280;67029;51.054;13.798;2023-02-05T05:22:41;102530.49;;;0.72;57.33
76519;BME280;67029;51.054;13.798;2023-02-05T05:25:11;102529.85;;;0.73;57.36
76519;BME280;67029;51.054;13.798;2023-02-05T05:27:41;102533.80;;;0.75;57.38
76519;BME280;67029;51.054;13.798;2023-02-05T05:30:12;102538.32;;;0.73;57.31
76519;BME280;67029;51.054;13.798;2023-02-05T05:32:41;102548.42;;;0.74;57.43
76519;BME280;67029;51.054;13.798;2023-02-05T05:35:12;102552.83;;;0.74;57.27
76519;BME280;67029;51.054;13.798;2023-02-05T05:37:42;102554.78;;;0.76;57.37
76519;BME280;67029;51.054;13.798;2023-02-05T05:40:12;102548.88;;;0.79;57.36
76519;BME280;67029;51.054;13.798;2023-02-05T05:42:42;102547.89;;;0.81;57.36
76519;BME280;67029;51.054;13.798;2023-02-05T05:45:12;102539.83;;;0.82;57.30
76519;BME280;67029;51.054;13.798;2023-02-05T05:47:42;102542.30;;;0.84;57.42
76519;BME280;67029;51.054;13.798;2023-02-05T05:50:12;102548.43;;;0.87;57.40
76519;BME280;67029;51.054;13.798;2023-02-05T05:52:42;102547.64;;;0.88;57.46
76519;BME280;67029;51.054;13.798;2023-02-05T05:55:12;102542.62;;;0.92;57.51
76519;BME280;67029;51.054;13.798;2023-02-05T05:57:42;102539.77;;;0.94;57.45
76519;BME280;67029;51.054;13.798;2023-02-05T06:00:13;102538.94;;;0.94;57.42
76519;BME280;67029;51.054;13.798;2023-02-05T06:02:42;102541.56;;;0.98;57.45
76519;BME280;67029;51.054;13.798;2023-02-05T06:05:12;102542.73;;;0.84;57.41
76519;BME280;67029;51.054;13.798;2023-02-05T06:07:42;102539.78;;;0.84;57.62
76519;BME280;67029;51.054;13.798;2023-02-05T06:10:12;102542.64;;;0.85;57.65
76519;BME280;67029;51.054;13.798;2023-02-05T06:12:42;102544.27;;;0.86;57.67
76519;BME280;67029;51.054;13.798;2023-02-05T06:15:12;102542.70;;;0.91;57.71
76519;BME280;67029;51.054;13.798;2023-02-05T06:17:42;102546.02;;;0.92;57.56
76519;BME280;67029;51.054;13.798;2023-02-05T06:20:12;102543.33;;;0.93;57.52
76519;BME280;67029;51.054;13.798;2023-02-05T06:22:42;102541.20;;;0.88;57.44
76519;BME280;67029;51.054;13.798;2023-02-05T06:25:12;102544.95;;;0.78;57.61
76519;BME280;67029;51.054;13.798;2023-02-05T06:27:42;102546.16;;;0.78;57.64
76519;BME280;67029;51.054;13.798;2023-02-05T06:30:13;102541.78;;;0.78;57.75
76519;BME280;67029;51.054;13.798;2023-02-05T06:32:42;102547.25;;;0.82;57.69
76519;BME280;67029;51.054;13.798;2023-02-05T06:35:12;102544.22;;;0.80;57.58
76519;BME280;67029;51.054;13.798;2023-02-05T06:37:42;102548.20;;;0.77;57.59
76519;BME280;67029;51.054;13.798;2023-02-05T06:40:13;102547.56;;;0.68;57.46
76519;BME280;67029;51.054;13.798;2023-02-05T06:42:44;102548.94;;;0.56;57.85
76519;BME280;67029;51.054;13.798;2023-02-05T06:45:14;102547.55;;;0.57;57.82
76519;BME280;67029;51.054;13.798;2023-02-05T06:47:44;102561.75;;;0.50;57.76
76519;BME280;67029;51.054;13.798;2023-02-05T06:50:14;102565.11;;;0.43;57.95
76519;BME280;67029;51.054;13.798;2023-02-05T06:52:44;102565.16;;;0.48;58.03
76519;BME280;67029;51.054;13.798;2023-02-05T06:55:14;102564.05;;;0.54;57.87
76519;BME280;67029;51.054;13.798;2023-02-05T06:57:44;102561.09;;;0.56;57.71
76519;BME280;67029;51.054;13.798;2023-02-05T07:00:14;102558.54;;;0.58;57.73
76519;BME280;67029;51.054;13.798;2023-02-05T07:02:45;102559.61;;;0.60;57.76
76519;BME280;67029;51.054;13.798;2023-02-05T07:05:15;102556.95;;;0.58;57.58
76519;BME280;67029;51.054;13.798;2023-02-05T07:07:45;102562.16;;;0.48;57.76
76519;BME280;67029;51.054;13.798;2023-02-05T07:10:15;102557.41;;;0.42;57.90
76519;BME280;67029;51.054;13.798;2023-02-05T07:12:45;102557.26;;;0.35;58.15
76519;BME280;67029;51.054;13.798;2023-02-05T07:15:15;102551.97;;;0.43;58.20
76519;BME280;67029;51.054;13.798;2023-02-05T07:17:45;102557.09;;;0.49;58.14
76519;BME280;67029;51.054;13.798;2023-02-05T07:20:15;102564.16;;;0.52;58.10
76519;BME280;67029;51.054;13.798;2023-02-05T07:22:45;102555.46;;;0.43;58.25
76519;BME280;67029;51.054;13.798;2023-02-05T07:25:15;102549.98;;;0.15;58.66
76519;BME280;67029;51.054;13.798;2023-02-05T07:27:45;102552.17;;;0.00;59.51
76519;BME280;67029;51.054;13.798;2023-02-05T07:30:16;102551.19;;;0.01;60.33
76519;BME280;67029;51.054;13.798;2023-02-05T07:32:46;102553.91;;;0.19;60.29
76519;BME280;67029;51.054;13.798;2023-02-05T07:35:16;102554.52;;;0.42;60.07
76519;BME280;67029;51.054;13.798;2023-02-05T07:37:46;102552.91;;;0.63;59.72
76519;BME280;67029;51.054;13.798;2023-02-05T07:40:16;102557.74;;;0.86;59.58
76519;BME280;67029;51.054;13.798;2023-02-05T07:42:46;102558.95;;;1.13;59.05
76519;BME280;67029;51.054;13.798;2023-02-05T07:45:16;102553.26;;;1.37;58.48
76519;BME280;67029;51.054;13.798;2023-02-05T07:47:46;102550.72;;;1.55;58.37
76519;BME280;67029;51.054;13.798;2023-02-05T07:50:16;102547.11;;;1.78;57.57
76519;BME280;67029;51.054;13.798;2023-02-05T07:52:46;102546.08;;;1.86;57.13
76519;BME280;67029;51.054;13.798;2023-02-05T07:55:16;102548.12;;;1.88;56.72
76519;BME280;67029;51.054;13.798;2023-02-05T07:57:46;102553.94;;;1.93;56.32
76519;BME280;67029;51.054;13.798;2023-02-05T08:00:17;102556.87;;;1.88;56.19
76519;BME280;67029;51.054;13.798;2023-02-05T08:02:47;102565.15;;;2.00;55.82
76519;BME280;67029;51.054;13.798;2023-02-05T08:05:17;102564.27;;;2.14;55.66
76519;BME280;67029;51.054;13.798;2023-02-05T08:07:47;102560.79;;;2.28;55.27
76519;BME280;67029;51.054;13.798;2023-02-05T08:10:17;102560.89;;;2.40;54.54
76519;BME280;67029;51.054;13.798;2023-02-05T08:12:47;102561.38;;;2.18;54.53
76519;BME280;67029;51.054;13.798;2023-02-05T08:15:17;102558.53;;;2.13;54.63
76519;BME280;67029;51.054;13.798;2023-02-05T08:17:47;102551.16;;;2.31;54.23
76519;BME280;67029;51.054;13.798;2023-02-05T08:20:17;102544.14;;;2.42;54.46
76519;BME280;67029;51.054;13.798;2023-02-05T08:22:47;102535.41;;;2.56;54.02
76519;BME280;67029;51.054;13.798;2023-02-05T08:25:17;102532.06;;;2.69;54.00
76519;BME280;67029;51.054;13.798;2023-02-05T08:27:47;102532.06;;;2.81;53.64
76519;BME280;67029;51.054;13.798;2023-02-05T08:30:17;102520.70;;;2.80;53.27
76519;BME280;67029;51.054;13.798;2023-02-05T08:32:48;102514.06;;;2.83;52.87
76519;BME280;67029;51.054;13.798;2023-02-05T08:35:17;102507.70;;;2.97;52.23
76519;BME280;67029;51.054;13.798;2023-02-05T08:37:47;102504.62;;;2.98;52.36
76519;BME280;67029;51.054;13.798;2023-02-05T08:40:18;102503.09;;;3.10;52.04
76519;BME280;67029;51.054;13.798;2023-02-05T08:42:48;102500.61;;;3.10;51.83
76519;BME280;67029;51.054;13.798;2023-02-05T08:45:18;102490.45;;;3.16;51.56
76519;BME280;67029;51.054;13.798;2023-02-05T08:47:48;102486.64;;;3.28;50.79
76519;BME280;67029;51.054;13.798;2023-02-05T08:50:18;102482.27;;;3.38;50.33
76519;BME280;67029;51.054;13.798;2023-02-05T08:52:48;102482.05;;;3.41;50.73
76519;BME280;67029;51.054;13.798;2023-02-05T08:55:18;102480.44;;;3.51;50.60
76519;BME280;67029;51.054;13.798;2023-02-05T08:57:48;102478.07;;;3.46;50.37
76519;BME280;67029;51.054;13.798;2023-02-05T09:00:18;102479.01;;;3.48;50.09
76519;BME280;67029;51.054;13.798;2023-02-05T09:02:48;102471.05;;;3.56;50.22
76519;BME280;67029;51.054;13.798;2023-02-05T09:05:18;102469.87;;;3.52;49.75
76519;BME280;67029;51.054;13.798;2023-02-05T09:07:48;102469.28;;;3.55;50.10
76519;BME280;67029;51.054;13.798;2023-02-05T09:10:18;102466.28;;;3.63;49.86
76519;BME280;67029;51.054;13.798;2023-02-05T09:12:48;102462.34;;;3.33;49.45
76519;BME280;67029;51.054;13.798;2023-02-05T09:15:18;102459.06;;;3.10;50.58
76519;BME280;67029;51.054;13.798;2023-02-05T09:17:48;102455.87;;;3.16;50.78
76519;BME280;67029;51.054;13.798;2023-02-05T09:20:18;102455.56;;;3.11;50.35
76519;BME280;67029;51.054;13.798;2023-02-05T09:22:48;102456.39;;;3.10;50.94
76519;BME280;67029;51.054;13.798;2023-02-05T09:25:18;102459.32;;;3.26;50.13
76519;BME280;67029;51.054;13.798;2023-02-05T09:27:48;102460.27;;;3.36;50.10
76519;BME280;67029;51.054;13.798;2023-02-05T09:30:19;102455.17;;;3.29;50.34
76519;BME280;67029;51.054;13.798;2023-02-05T09:32:49;102454.02;;;3.36;50.66
76519;BME280;67029;51.054;13.798;2023-02-05T09:35:19;102451.18;;;3.59;50.42
76519;BME280;67029;51.054;13.798;2023-02-05T09:37:49;102455.47;;;3.81;50.12
76519;BME280;67029;51.054;13.798;2023-02-05T09:40:22;102447.43;;;4.00;50.00
76519;BME280;67029;51.054;13.798;2023-02-05T09:43:03;102445.50;;;4.32;49.00
76519;BME280;67029;51.054;13.798;2023-02-05T09:45:53;102442.36;;;4.55;49.10
76519;BME280;67029;51.054;13.798;2023-02-05T09:50:24;102440.12;;;4.88;48.17
76519;BME280;67029;51.054;13.798;2023-02-05T09:52:55;102436.89;;;5.07;47.57
76519;BME280;67029;51.054;13.798;2023-02-05T09:55:25;102434.86;;;5.27;47.75
76519;BME280;67029;51.054;13.798;2023-02-05T09:57:54;102430.09;;;5.53;47.47
76519;BME280;67029;51.054;13.798;2023-02-05T10:00:31;102426.63;;;5.84;47.22
76519;BME280;67029;51.054;13.798;2023-02-05T10:03:00;102433.33;;;6.20;46.31
76519;BME280;67029;51.054;13.798;2023-02-05T10:05:27;102432.35;;;6.34;46.08
76519;BME280;67029;51.054;13.798;2023-02-05T10:08:29;102428.04;;;6.35;46.17
76519;BME280;67029;51.054;13.798;2023-02-05T10:10:25;102420.70;;;6.53;45.17
76519;BME280;67029;51.054;13.798;2023-02-05T10:13:24;102415.26;;;6.79;45.01
76519;BME280;67029;51.054;13.798;2023-02-05T10:18:12;102410.44;;;7.25;44.03
76519;BME280;67029;51.054;13.798;2023-02-05T10:23:13;102408.28;;;7.62;43.83
76519;BME280;67029;51.054;13.798;2023-02-05T10:28:27;102414.48;;;7.86;43.10
76519;BME280;67029;51.054;13.798;2023-02-05T10:30:40;102403.83;;;7.89;41.77
76519;BME280;67029;51.054;13.798;2023-02-05T10:33:00;102399.72;;;7.95;41.62
76519;BME280;67029;51.054;13.798;2023-02-05T10:35:55;102400.27;;;7.92;40.91
76519;BME280;67029;51.054;13.798;2023-02-05T10:38:00;102405.03;;;7.68;41.91
76519;BME280;67029;51.054;13.798;2023-02-05T10:40:33;102406.04;;;7.50;42.27
76519;BME280;67029;51.054;13.798;2023-02-05T10:43:29;102403.47;;;7.56;41.70
76519;BME280;67029;51.054;13.798;2023-02-05T10:45:31;102405.52;;;7.70;41.56
76519;BME280;67029;51.054;13.798;2023-02-05T10:53:02;102390.75;;;7.41;42.39
76519;BME280;67029;51.054;13.798;2023-02-05T10:55:32;102383.41;;;7.45;41.70
76519;BME280;67029;51.054;13.798;2023-02-05T10:58:23;102382.19;;;7.43;41.48
76519;BME280;67029;51.054;13.798;2023-02-05T11:00:33;102374.52;;;7.40;41.96
76519;BME280;67029;51.054;13.798;2023-02-05T11:03:04;102379.16;;;7.65;41.64
76519;BME280;67029;51.054;13.798;2023-02-05T11:05:39;102380.88;;;7.87;41.21
76519;BME280;67029;51.054;13.798;2023-02-05T11:08:03;102376.23;;;7.95;40.49
76519;BME280;67029;51.054;13.798;2023-02-05T11:10:33;102376.91;;;8.05;40.95
76519;BME280;67029;51.054;13.798;2023-02-05T11:15:34;102371.88;;;8.31;40.19
76519;BME280;67029;51.054;13.798;2023-02-05T11:18:05;102363.30;;;8.38;39.63
76519;BME280;67029;51.054;13.798;2023-02-05T11:20:37;102352.41;;;8.48;38.36
76519;BME280;67029;51.054;13.798;2023-02-05T11:23:18;102353.64;;;8.27;38.83
76519;BME280;67029;51.054;13.798;2023-02-05T11:25:35;102357.11;;;8.12;39.94
76519;BME280;67029;51.054;13.798;2023-02-05T11:28:12;102355.97;;;8.28;38.51
76519;BME280;67029;51.054;13.798;2023-02-05T11:30:37;102360.98;;;8.33;38.06
76519;BME280;67029;51.054;13.798;2023-02-05T11:33:18;102356.58;;;8.35;38.96
76519;BME280;67029;51.054;13.798;2023-02-05T11:35:37;102351.24;;;8.45;38.24
76519;BME280;67029;51.054;13.798;2023-02-05T11:38:09;102349.29;;;8.48;38.74
76519;BME280;67029;51.054;13.798;2023-02-05T11:40:37;102339.58;;;8.57;38.11
76519;BME280;67029;51.054;13.798;2023-02-05T11:43:16;102339.76;;;8.53;37.62
76519;BME280;67029;51.054;13.798;2023-02-05T11:45:38;102337.42;;;8.36;38.07
76519;BME280;67029;51.054;13.798;2023-02-05T11:48:30;102336.31;;;8.42;38.50
76519;BME280;67029;51.054;13.798;2023-02-05T11:50:42;102337.02;;;8.52;38.69
76519;BME280;67029;51.054;13.798;2023-02-05T11:53:14;102332.97;;;8.58;38.16
76519;BME280;67029;51.054;13.798;2023-02-05T11:55:42;102337.34;;;8.65;38.32
76519;BME280;67029;51.054;13.798;2023-02-05T11:58:23;102325.22;;;8.58;38.22
76519;BME280;67029;51.054;13.798;2023-02-05T12:00:52;102319.48;;;8.58;38.38
76519;BME280;67029;51.054;13.798;2023-02-05T12:03:16;102317.23;;;8.75;38.33
76519;BME280;67029;51.054;13.798;2023-02-05T12:05:51;102314.86;;;8.92;38.15
76519;BME280;67029;51.054;13.798;2023-02-05T12:21:03;102324.83;;;9.17;36.95
76519;BME280;67029;51.054;13.798;2023-02-05T12:23:21;102319.25;;;9.37;36.86
76519;BME280;67029;51.054;13.798;2023-02-05T12:26:02;102313.30;;;9.57;36.52
76519;BME280;67029;51.054;13.798;2023-02-05T12:28:43;102314.50;;;9.70;36.36
76519;BME280;67029;51.054;13.798;2023-02-05T12:30:59;102310.62;;;9.79;35.60
76519;BME280;67029;51.054;13.798;2023-02-05T12:36:10;102298.73;;;9.96;35.06
76519;BME280;67029;51.054;13.798;2023-02-05T12:43:35;102304.89;;;10.15;34.99
76519;BME280;67029;51.054;13.798;2023-02-05T12:46:04;102303.95;;;10.24;34.88
76519;BME280;67029;51.054;13.798;2023-02-05T12:51:35;102304.69;;;10.34;34.60
76519;BME280;67029;51.054;13.798;2023-02-05T12:58:26;102301.82;;;10.35;33.94
76519;BME280;67029;51.054;13.798;2023-02-05T13:00:59;102307.32;;;10.30;34.13
76519;BME280;67029;51.054;13.798;2023-02-05T13:03:34;102302.41;;;9.94;33.18
76519;BME280;67029;51.054;13.798;2023-02-05T13:06:07;102299.50;;;9.52;32.93
76519;BME280;67029;51.054;13.798;2023-02-05T13:08:42;102292.55;;;9.38;32.35
76519;BME280;67029;51.054;13.798;2023-02-05T13:11:15;102285.25;;;9.26;32.18
76519;BME280;67029;51.054;13.798;2023-02-05T13:13:31;102291.20;;;9.13;32.97
76519;BME280;67029;51.054;13.798;2023-02-05T13:16:09;102285.97;;;8.79;32.62
76519;BME280;67029;51.054;13.798;2023-02-05T13:18:28;102286.05;;;8.62;34.05
76519;BME280;67029;51.054;13.798;2023-02-05T13:21:06;102284.56;;;8.60;33.98
76519;BME280;67029;51.054;13.798;2023-02-05T13:23:28;102283.77;;;8.59;34.52
76519;BME280;67029;51.054;13.798;2023-02-05T13:26:01;102285.41;;;8.60;34.39
76519;BME280;67029;51.054;13.798;2023-02-05T13:28:41;102289.00;;;8.55;34.00
76519;BME280;67029;51.054;13.798;2023-02-05T13:31:01;102284.33;;;8.42;33.51
76519;BME280;67029;51.054;13.798;2023-02-05T13:33:29;102278.09;;;8.26;34.01
76519;BME280;67029;51.054;13.798;2023-02-05T13:43:44;102279.42;;;8.23;34.47
76519;BME280;67029;51.054;13.798;2023-02-05T13:46:27;102285.89;;;8.04;35.02
76519;BME280;67029;51.054;13.798;2023-02-05T13:49:08;102294.94;;;7.88;35.30
76519;BME280;67029;51.054;13.798;2023-02-05T13:56:28;102299.92;;;8.22;35.00
76519;BME280;67029;51.054;13.798;2023-02-05T14:01:16;102308.76;;;8.41;35.40
76519;BME280;67029;51.054;13.798;2023-02-05T14:03:39;102311.14;;;8.52;35.71
76519;BME280;67029;51.054;13.798;2023-02-05T14:06:12;102314.77;;;8.65;36.02
76519;BME280;67029;51.054;13.798;2023-02-05T14:08:37;102310.46;;;8.80;36.01
76519;BME280;67029;51.054;13.798;2023-02-05T14:11:06;102307.39;;;8.99;35.74
76519;BME280;67029;51.054;13.798;2023-02-05T14:13:36;102308.50;;;9.15;35.82
76519;BME280;67029;51.054;13.798;2023-02-05T14:16:32;102306.75;;;9.36;35.68
76519;BME280;67029;51.054;13.798;2023-02-05T14:18:45;102306.55;;;9.58;34.66